Medicine Hat, Medicine Hat Airport (CYXH)

NameMedicine Hat Airport
CityMedicine Hat
CountryCanada
ICAOCYXH
IATAYXH
Altitude717 m
CoordinatesGoogle Map
Live Air TrafficLiveATC.net
METARCYXH 221100Z AUTO 21016KT 9SM BKN140 OVC160 02/M04 A2963 RMK SLP060
2020-01-22 11:00:00 Wind: South-Southwest (210°) 8.23 m/s - Visibility: 14484.06 m - Temperature: 2 °C - Dew point: -4 °C - Humidity: 64.8% - Pressure: 1003.39 hPa
Statistics

The table below shows the detailed information of all flights to/from Medicine Hat, Medicine Hat Airport (CYXH).